Time;durP1;ratioP1;P1;durP2;ratioP2;P2;SDS_P1;SDS_P2;PMS_P1;PMS_P2;Temp;Humidity;BMP_temperature;BMP_pressure;BME280_temperature;BME280_humidity;BME280_pressure;Samples;Min_cycle;Max_cycle;Signal;HPM_P1;HPM_P2
2023/12/26 00:00:29;;;;;;;3.07;3.07;;;;;;;11.08;95.41;100287.34;5055866;28;20705;-74
2023/12/26 00:02:57;;;;;;;2.43;2.43;;;;;;;11.14;95.17;100274.16;5055648;28;20663;-74
2023/12/26 00:05:24;;;;;;;3.13;3.13;;;;;;;11.16;95.07;100279.34;5054156;28;20663;-74
2023/12/26 00:07:51;;;;;;;2.80;2.80;;;;;;;11.12;94.42;100278.81;5055577;28;20229;-74
2023/12/26 00:10:17;;;;;;;3.10;3.00;;;;;;;11.10;95.06;100274.66;5055643;28;20218;-74
2023/12/26 00:12:44;;;;;;;3.03;2.97;;;;;;;11.13;94.50;100263.59;5055185;28;20709;-74
2023/12/26 00:15:10;;;;;;;3.10;2.90;;;;;;;11.12;94.37;100272.66;5055431;28;20198;-74
2023/12/26 00:17:37;;;;;;;2.67;2.67;;;;;;;11.15;93.84;100270.47;5055019;28;20203;-74
2023/12/26 00:20:05;;;;;;;2.70;2.60;;;;;;;11.17;93.43;100262.25;5054998;28;20569;-74
2023/12/26 00:22:31;;;;;;;2.20;2.20;;;;;;;11.16;92.86;100250.72;5055011;28;20187;-74
2023/12/26 00:24:58;;;;;;;2.50;2.40;;;;;;;11.21;92.95;100250.22;5055540;28;20186;-74
2023/12/26 00:27:24;;;;;;;2.40;2.40;;;;;;;11.24;92.39;100241.88;5054954;28;20538;-74
2023/12/26 00:29:50;;;;;;;3.00;2.80;;;;;;;11.19;93.14;100247.75;5054892;28;20253;-74
2023/12/26 00:32:17;;;;;;;3.83;3.50;;;;;;;11.20;93.22;100246.72;5053773;28;20201;-74
2023/12/26 00:34:44;;;;;;;2.63;2.63;;;;;;;11.18;94.30;100221.97;5054775;28;20179;-74
2023/12/26 00:37:11;;;;;;;5.03;2.90;;;;;;;11.06;93.60;100249.22;5055037;28;20183;-74
2023/12/26 00:39:37;;;;;;;2.50;2.50;;;;;;;10.99;94.85;100249.03;5053328;28;20695;-75
2023/12/26 00:42:04;;;;;;;2.67;2.67;;;;;;;10.99;94.22;100246.38;5054912;28;20229;-74
2023/12/26 00:44:30;;;;;;;2.30;2.20;;;;;;;10.93;95.06;100269.28;5053367;28;20216;-74
2023/12/26 00:46:58;;;;;;;3.63;3.10;;;;;;;10.91;93.92;100259.72;5054522;28;20218;-74
2023/12/26 00:49:24;;;;;;;3.37;3.27;;;;;;;10.88;94.88;100270.75;5053143;28;20207;-75
2023/12/26 00:51:52;;;;;;;2.80;2.70;;;;;;;10.82;95.00;100277.59;5054459;28;20195;-75
2023/12/26 00:54:19;;;;;;;2.40;2.40;;;;;;;10.85;95.06;100282.66;5054427;28;20183;-75
2023/12/26 00:56:45;;;;;;;1.90;1.90;;;;;;;10.83;95.16;100287.31;5054382;28;20188;-74
2023/12/26 00:59:12;;;;;;;2.70;2.60;;;;;;;10.81;95.67;100288.47;5054609;28;20203;-75
2023/12/26 01:01:38;;;;;;;2.40;2.30;;;;;;;10.71;95.92;100288.63;5054514;28;20198;-75
2023/12/26 01:04:04;;;;;;;3.40;2.67;;;;;;;10.66;96.41;100282.06;5052975;28;20199;-75
2023/12/26 01:06:31;;;;;;;2.27;2.27;;;;;;;10.62;96.79;100275.38;5054143;28;20241;-75
2023/12/26 01:08:59;;;;;;;2.63;2.63;;;;;;;10.54;97.07;100270.84;5052761;28;20195;-75
2023/12/26 01:11:26;;;;;;;2.17;2.17;;;;;;;10.54;97.13;100286.88;5054214;28;20746;-75
2023/12/26 01:13:54;;;;;;;1.97;1.97;;;;;;;10.50;97.43;100281.03;5052764;28;20574;-76
2023/12/26 01:16:25;;;;;;;3.50;1.90;;;;;;;10.42;97.76;100281.00;5054241;28;20274;-76
2023/12/26 01:18:51;;;;;;;2.57;2.57;;;;;;;10.45;98.15;100282.50;5053801;28;20209;-76
2023/12/26 01:21:18;;;;;;;2.00;2.00;;;;;;;10.41;98.50;100284.69;5053920;28;20193;-76
2023/12/26 01:23:45;;;;;;;2.30;2.20;;;;;;;10.46;98.43;100285.03;5053852;28;20201;-76
2023/12/26 01:26:13;;;;;;;2.33;2.33;;;;;;;10.47;98.14;100285.88;5052534;28;20663;-76
2023/12/26 01:28:40;;;;;;;2.10;2.10;;;;;;;10.39;98.04;100283.19;5052504;28;20285;-76
2023/12/26 01:31:07;;;;;;;5.00;1.97;;;;;;;10.34;97.92;100266.78;5052066;28;20579;-76
2023/12/26 01:33:33;;;;;;;2.13;2.07;;;;;;;10.37;98.50;100287.81;5053920;28;20187;-76
2023/12/26 01:36:00;;;;;;;3.33;3.20;;;;;;;10.35;98.32;100298.69;5053645;28;20202;-76
2023/12/26 01:38:26;;;;;;;2.93;2.80;;;;;;;10.33;97.88;100284.66;5052386;28;20202;-76
2023/12/26 01:40:53;;;;;;;2.70;2.70;;;;;;;10.25;98.48;100300.66;5053716;28;20206;-76
2023/12/26 01:43:19;;;;;;;2.37;2.37;;;;;;;10.31;98.31;100302.66;5053554;28;20186;-76
2023/12/26 01:45:46;;;;;;;3.10;2.87;;;;;;;10.31;98.56;100309.88;5052213;28;20191;-76
2023/12/26 01:48:12;;;;;;;3.40;3.20;;;;;;;10.26;98.56;100309.50;5052209;28;20613;-76
2023/12/26 01:50:39;;;;;;;3.13;3.13;;;;;;;10.19;98.65;100309.28;5054589;28;20210;-78
2023/12/26 01:53:06;;;;;;;3.53;3.40;;;;;;;10.20;98.92;100308.28;5054855;28;20290;-78
2023/12/26 01:55:32;;;;;;;3.07;2.87;;;;;;;10.21;98.97;100318.00;5056376;28;20187;-78
2023/12/26 01:58:00;;;;;;;2.90;2.87;;;;;;;10.22;99.17;100300.13;5054615;28;20187;-78
2023/12/26 02:00:27;;;;;;;3.93;3.73;;;;;;;10.28;98.80;100321.69;5054785;28;20225;-78
2023/12/26 02:02:54;;;;;;;3.40;3.17;;;;;;;10.29;98.98;100326.03;5053567;28;20199;-78
2023/12/26 02:05:21;;;;;;;3.23;3.23;;;;;;;10.21;98.90;100319.81;5054801;28;20187;-78
2023/12/26 02:07:48;;;;;;;3.50;3.50;;;;;;;10.24;98.93;100320.34;5054583;28;20197;-78
2023/12/26 02:10:15;;;;;;;3.63;3.53;;;;;;;10.26;98.70;100330.88;5054028;28;20237;-78
2023/12/26 02:12:43;;;;;;;2.63;2.63;;;;;;;10.22;98.62;100333.03;5053528;28;20286;-78
2023/12/26 02:15:11;;;;;;;2.97;2.80;;;;;;;10.18;98.87;100322.81;5053676;28;20191;-78
2023/12/26 02:17:39;;;;;;;3.07;2.97;;;;;;;10.13;98.71;100333.94;5053405;28;20241;-78
2023/12/26 02:20:07;;;;;;;3.13;3.13;;;;;;;10.14;99.34;100327.63;5054511;28;20234;-77
2023/12/26 02:22:34;;;;;;;3.10;3.10;;;;;;;10.15;99.14;100334.63;5055697;28;20194;-78
2023/12/26 02:25:01;;;;;;;3.77;3.77;;;;;;;10.13;98.78;100331.28;5055666;28;20198;-78
2023/12/26 02:27:34;;;;;;;3.63;3.47;;;;;;;10.09;99.02;100341.44;5054177;28;20290;-77
2023/12/26 02:30:01;;;;;;;2.80;2.80;;;;;;;10.08;99.12;100339.75;5055289;28;20218;-78
2023/12/26 02:32:30;;;;;;;3.80;3.60;;;;;;;10.09;99.56;100337.94;5056176;28;20233;-78
2023/12/26 02:35:00;;;;;;;2.77;2.77;;;;;;;10.09;98.81;100341.44;5055022;28;20195;-78
2023/12/26 02:37:29;;;;;;;3.37;3.23;;;;;;;10.08;99.05;100334.41;5053749;28;20562;-78
2023/12/26 02:39:55;;;;;;;2.53;2.53;;;;;;;10.10;99.25;100340.41;5055561;28;20210;-78
2023/12/26 02:42:24;;;;;;;2.67;2.67;;;;;;;10.18;99.32;100341.53;5056584;28;20187;-78
2023/12/26 02:44:51;;;;;;;6.50;2.83;;;;;;;10.15;99.18;100339.97;5059590;28;20208;-78
2023/12/26 02:47:17;;;;;;;2.83;2.80;;;;;;;10.11;99.01;100349.28;5059069;28;20192;-78
2023/12/26 02:49:44;;;;;;;2.53;2.53;;;;;;;10.12;99.36;100344.78;5057935;28;20215;-78
2023/12/26 02:52:11;;;;;;;2.90;2.90;;;;;;;9.97;99.37;100342.66;5059335;28;20556;-78
2023/12/26 02:54:38;;;;;;;3.70;2.60;;;;;;;10.01;99.78;100340.56;5058561;28;20203;-78
2023/12/26 02:57:05;;;;;;;3.50;3.17;;;;;;;10.01;99.49;100356.56;5058149;28;20191;-78
2023/12/26 02:59:31;;;;;;;3.13;2.97;;;;;;;9.97;99.63;100350.69;5059340;28;20211;-78
2023/12/26 03:01:58;;;;;;;2.50;2.50;;;;;;;9.97;99.66;100352.53;5057587;28;20195;-78
2023/12/26 03:04:26;;;;;;;3.10;3.00;;;;;;;9.99;99.58;100346.03;5056690;28;20184;-78
2023/12/26 03:06:53;;;;;;;2.67;2.67;;;;;;;9.93;99.65;100359.19;5056711;28;20241;-78
2023/12/26 03:09:19;;;;;;;2.97;2.90;;;;;;;9.92;99.47;100341.50;5058053;28;20207;-77
2023/12/26 03:11:45;;;;;;;2.87;2.87;;;;;;;9.93;99.74;100345.84;5056602;28;20219;-77
2023/12/26 03:14:13;;;;;;;3.43;3.23;;;;;;;9.91;99.82;100350.50;5058754;28;20187;-78
2023/12/26 03:16:40;;;;;;;3.07;3.03;;;;;;;9.84;100.00;100349.44;5055868;28;20195;-78
2023/12/26 03:19:06;;;;;;;1.90;1.90;;;;;;;9.84;100.00;100358.31;5056592;28;20219;-77
2023/12/26 03:21:33;;;;;;;2.90;2.90;;;;;;;9.81;100.00;100361.25;5057712;28;20182;-77
2023/12/26 03:23:59;;;;;;;7.37;3.50;;;;;;;9.83;100.00;100345.94;5057218;28;20164;-78
2023/12/26 03:26:27;;;;;;;4.07;3.97;;;;;;;9.81;100.00;100339.91;5056242;28;20199;-77
2023/12/26 03:28:53;;;;;;;3.63;3.60;;;;;;;9.83;100.00;100356.63;5057162;28;20187;-77
2023/12/26 03:31:19;;;;;;;3.70;3.70;;;;;;;9.88;100.00;100357.00;5055937;28;20231;-78
2023/12/26 03:33:46;;;;;;;3.53;3.43;;;;;;;9.85;99.82;100354.59;5057661;28;20549;-78
2023/12/26 03:36:13;;;;;;;3.90;3.80;;;;;;;9.88;99.77;100358.81;5057246;28;20278;-78
2023/12/26 03:38:39;;;;;;;3.30;3.30;;;;;;;9.92;99.48;100345.00;5056088;28;20199;-77
2023/12/26 03:41:06;;;;;;;2.80;2.80;;;;;;;9.91;99.44;100366.50;5056610;28;20211;-77
2023/12/26 03:43:32;;;;;;;2.23;2.23;;;;;;;9.91;99.73;100363.84;5057075;28;20187;-77
2023/12/26 03:45:59;;;;;;;2.20;2.20;;;;;;;9.86;99.63;100360.78;5055315;28;20244;-77
2023/12/26 03:48:25;;;;;;;1.30;1.30;;;;;;;9.89;99.73;100369.31;5056424;28;20191;-78
2023/12/26 03:50:52;;;;;;;2.17;2.17;;;;;;;9.87;99.84;100368.66;5056933;28;20222;-78
2023/12/26 03:53:18;;;;;;;3.10;2.90;;;;;;;9.91;99.93;100369.19;5054284;28;20291;-78
2023/12/26 03:55:46;;;;;;;3.03;2.93;;;;;;;9.90;100.00;100368.34;5055011;28;20206;-78
2023/12/26 03:58:13;;;;;;;2.47;2.47;;;;;;;9.90;99.93;100379.00;5054769;28;20198;-76
2023/12/26 04:00:39;;;;;;;2.60;2.60;;;;;;;9.93;99.85;100378.69;5054112;28;20203;-76
2023/12/26 04:03:06;;;;;;;2.60;2.60;;;;;;;9.88;100.00;100374.84;5054125;28;20218;-75
2023/12/26 04:05:32;;;;;;;4.40;2.43;;;;;;;9.88;100.00;100385.53;5054352;28;20294;-75
2023/12/26 04:07:59;;;;;;;2.77;2.70;;;;;;;9.86;100.00;100385.66;5054082;28;20301;-75
2023/12/26 04:10:25;;;;;;;2.13;2.10;;;;;;;9.86;100.00;100385.66;5053889;28;20215;-75
2023/12/26 04:12:52;;;;;;;2.47;2.47;;;;;;;9.89;100.00;100385.34;5053938;28;20199;-75
2023/12/26 04:15:19;;;;;;;2.80;2.60;;;;;;;9.89;100.00;100393.34;5055216;28;20188;-75
2023/12/26 04:17:46;;;;;;;2.80;2.73;;;;;;;9.91;100.00;100401.22;5053808;28;20203;-75
2023/12/26 04:20:13;;;;;;;2.57;2.33;;;;;;;9.91;99.83;100403.88;5037249;28;20747;-75
2023/12/26 04:22:39;;;;;;;2.50;2.50;;;;;;;9.85;100.00;100413.34;5053787;28;20198;-75
2023/12/26 04:25:07;;;;;;;3.23;3.13;;;;;;;9.84;100.00;100405.50;5053971;28;20647;-75
2023/12/26 04:27:34;;;;;;;2.70;2.57;;;;;;;9.84;100.00;100405.50;5053955;28;20294;-75
2023/12/26 04:30:00;;;;;;;3.37;3.27;;;;;;;9.77;100.00;100415.94;5054969;28;20211;-75
2023/12/26 04:32:27;;;;;;;2.83;2.77;;;;;;;9.81;100.00;100417.31;5054339;28;20215;-75
2023/12/26 04:34:54;;;;;;;3.63;2.90;;;;;;;9.82;100.00;100421.69;5053541;28;20253;-75
2023/12/26 04:37:20;;;;;;;3.43;3.33;;;;;;;9.82;100.00;100424.34;5054565;28;20246;-75
2023/12/26 04:39:47;;;;;;;3.53;3.10;;;;;;;9.81;100.00;100425.34;5053397;28;20219;-75
2023/12/26 04:42:13;;;;;;;3.13;3.03;;;;;;;9.85;100.00;100428.53;5054674;28;20192;-75
2023/12/26 04:44:40;;;;;;;3.97;3.67;;;;;;;9.82;100.00;100432.34;5053595;28;20689;-75
2023/12/26 04:47:07;;;;;;;4.23;4.13;;;;;;;9.83;100.00;100427.84;5053522;28;20218;-75
2023/12/26 04:49:33;;;;;;;3.50;3.50;;;;;;;9.80;100.00;100447.69;5053452;28;20586;-76
2023/12/26 04:52:00;;;;;;;4.03;3.93;;;;;;;9.83;100.00;100447.38;5053127;28;20215;-75
2023/12/26 04:54:26;;;;;;;4.03;3.63;;;;;;;9.85;100.00;100455.22;5053198;28;20187;-75
2023/12/26 04:56:53;;;;;;;5.60;5.10;;;;;;;9.84;100.00;100465.09;5053115;28;20601;-75
2023/12/26 04:59:19;;;;;;;6.63;6.53;;;;;;;9.88;99.42;100463.78;5053034;28;20241;-75
2023/12/26 05:01:49;;;;;;;5.23;4.93;;;;;;;9.88;99.84;100460.28;5053031;28;20184;-75
2023/12/26 05:04:16;;;;;;;5.63;5.47;;;;;;;9.87;99.47;100466.59;5054176;28;20195;-74
2023/12/26 05:06:43;;;;;;;5.23;5.13;;;;;;;9.82;99.47;100477.75;5053957;28;20187;-75
2023/12/26 05:09:10;;;;;;;4.30;4.20;;;;;;;9.92;99.07;100485.69;5052819;28;20215;-75
2023/12/26 05:11:36;;;;;;;5.20;4.80;;;;;;;9.85;99.41;100488.09;5054576;28;20617;-75
2023/12/26 05:14:03;;;;;;;4.90;4.60;;;;;;;9.89;98.75;100494.81;5052836;28;20195;-75
2023/12/26 05:16:30;;;;;;;7.00;4.73;;;;;;;9.87;98.57;100496.81;5054002;28;20195;-75
2023/12/26 05:18:56;;;;;;;6.00;4.27;;;;;;;9.93;98.17;100506.88;5052803;28;20199;-75
2023/12/26 05:21:23;;;;;;;10.37;4.90;;;;;;;9.91;97.29;100489.34;5053914;28;20229;-75
2023/12/26 05:23:50;;;;;;;5.10;4.10;;;;;;;9.93;96.71;100495.38;5054423;28;20198;-75
2023/12/26 05:26:16;;;;;;;4.63;4.47;;;;;;;9.93;95.75;100506.06;5052550;28;20208;-75
2023/12/26 05:28:45;;;;;;;4.93;4.67;;;;;;;9.93;94.49;100509.53;5052550;28;20187;-74
2023/12/26 05:31:11;;;;;;;6.30;4.80;;;;;;;10.02;94.74;100510.47;5053673;28;20616;-74
2023/12/26 05:33:38;;;;;;;7.30;3.87;;;;;;;9.98;92.62;100514.44;5052364;28;20643;-74
2023/12/26 05:36:06;;;;;;;3.47;3.33;;;;;;;9.97;92.17;100526.13;5052694;28;20195;-74
2023/12/26 05:38:33;;;;;;;3.77;3.50;;;;;;;9.98;92.24;100531.28;5052366;28;20187;-74
2023/12/26 05:41:03;;;;;;;3.13;2.63;;;;;;;9.95;91.89;100542.28;5052208;28;20222;-74
2023/12/26 05:43:29;;;;;;;3.40;3.10;;;;;;;9.94;91.47;100535.25;5052605;28;20184;-74
2023/12/26 05:45:56;;;;;;;2.93;2.73;;;;;;;9.92;91.66;100549.78;5052258;28;20191;-74
2023/12/26 05:48:22;;;;;;;4.07;3.77;;;;;;;9.90;92.18;100555.25;5052204;28;20199;-74
2023/12/26 05:50:49;;;;;;;3.33;2.90;;;;;;;9.89;91.60;100564.25;5052034;28;20692;-74
2023/12/26 05:53:15;;;;;;;2.40;2.03;;;;;;;9.92;91.35;100555.94;5052140;28;20228;-74
2023/12/26 05:55:42;;;;;;;2.60;2.40;;;;;;;9.84;91.78;100569.22;5052086;28;20199;-74
2023/12/26 05:58:08;;;;;;;6.70;2.80;;;;;;;9.82;92.09;100563.19;5053303;28;20291;-74
2023/12/26 06:00:36;;;;;;;7.07;2.17;;;;;;;9.79;92.07;100559.97;5051995;28;20215;-75
2023/12/26 06:03:03;;;;;;;3.20;2.30;;;;;;;9.78;91.91;100566.28;5052038;28;20602;-74
2023/12/26 06:05:29;;;;;;;3.97;3.87;;;;;;;9.80;92.34;100581.16;5051988;28;20294;-74
2023/12/26 06:07:56;;;;;;;4.87;2.03;;;;;;;9.77;92.52;100581.47;5051901;28;20191;-74
2023/12/26 06:10:23;;;;;;;3.17;2.97;;;;;;;9.78;92.87;100587.66;5051864;28;20211;-75
2023/12/26 06:12:50;;;;;;;2.73;2.57;;;;;;;9.78;93.21;100585.81;5052053;28;20215;-75
2023/12/26 06:15:16;;;;;;;2.27;2.27;;;;;;;9.84;93.07;100589.75;5051911;28;20646;-75
2023/12/26 06:17:43;;;;;;;6.43;2.93;;;;;;;9.77;93.41;100597.50;5051941;28;20210;-75
2023/12/26 06:20:14;;;;;;;2.77;2.77;;;;;;;9.83;93.44;100598.72;5051775;28;20268;-74
2023/12/26 06:22:41;;;;;;;2.20;2.20;;;;;;;9.80;93.27;100607.06;5053324;28;20254;-74
2023/12/26 06:25:07;;;;;;;3.77;3.43;;;;;;;9.78;92.74;100606.34;5051740;28;20195;-74
2023/12/26 06:27:35;;;;;;;3.33;3.00;;;;;;;9.75;91.43;100623.50;5051746;28;20659;-74
2023/12/26 06:30:01;;;;;;;4.77;2.40;;;;;;;9.74;90.92;100634.31;5051617;28;20219;-74
2023/12/26 06:32:29;;;;;;;2.40;2.30;;;;;;;9.71;90.80;100640.81;5051605;28;20280;-74
2023/12/26 06:34:55;;;;;;;5.40;2.37;;;;;;;9.72;89.95;100655.00;5051787;28;20191;-77
2023/12/26 06:37:22;;;;;;;2.53;2.43;;;;;;;9.66;89.12;100652.91;5051794;28;20191;-77
2023/12/26 06:39:48;;;;;;;4.47;2.53;;;;;;;9.66;88.18;100655.59;5052006;28;20211;-77
2023/12/26 06:42:15;;;;;;;5.00;1.80;;;;;;;9.70;87.39;100652.47;5051834;28;20321;-77
2023/12/26 06:44:42;;;;;;;2.93;2.13;;;;;;;9.65;87.37;100660.06;5051681;28;20214;-77
2023/12/26 06:47:11;;;;;;;5.50;2.10;;;;;;;9.62;87.64;100665.72;5051644;28;20199;-77
2023/12/26 06:49:43;;;;;;;12.00;1.80;;;;;;;9.58;84.61;100651.00;5051508;28;20219;-76
2023/12/26 06:52:12;;;;;;;6.60;2.20;;;;;;;9.56;84.51;100676.97;5053064;28;20557;-77
2023/12/26 06:54:38;;;;;;;1.53;1.40;;;;;;;9.60;82.81;100686.38;5051776;28;20191;-77
2023/12/26 06:57:08;;;;;;;1.93;1.83;;;;;;;9.55;83.33;100694.81;5053014;28;20659;-77
2023/12/26 06:59:35;;;;;;;7.67;1.93;;;;;;;9.47;84.12;100697.38;5053193;28;20624;-77
2023/12/26 07:02:01;;;;;;;4.10;2.00;;;;;;;9.45;83.92;100703.84;5051464;28;20238;-77
2023/12/26 07:04:28;;;;;;;2.27;1.90;;;;;;;9.42;82.44;100709.47;5051467;28;20192;-77
2023/12/26 07:06:54;;;;;;;3.80;1.77;;;;;;;9.36;82.97;100702.88;5052682;28;20184;-77
2023/12/26 07:09:20;;;;;;;4.77;2.57;;;;;;;9.31;81.99;100704.28;5052571;28;20203;-76
2023/12/26 07:11:49;;;;;;;5.27;1.97;;;;;;;9.27;82.50;100710.91;5052524;28;20209;-76
2023/12/26 07:14:15;;;;;;;2.83;2.63;;;;;;;9.18;82.97;100724.13;5052588;28;20187;-76
2023/12/26 07:16:42;;;;;;;10.50;2.40;;;;;;;9.13;83.26;100722.84;5052448;28;20192;-76
2023/12/26 07:19:08;;;;;;;2.40;2.10;;;;;;;9.09;82.36;100732.13;5052765;28;20748;-76
2023/12/26 07:21:35;;;;;;;2.37;2.17;;;;;;;9.09;82.10;100726.78;5053040;28;20543;-76
2023/12/26 07:24:01;;;;;;;5.87;2.17;;;;;;;9.03;82.27;100730.88;5052479;28;20231;-76
2023/12/26 07:26:28;;;;;;;5.90;2.37;;;;;;;8.98;82.44;100749.13;5052460;28;20187;-77
2023/12/26 07:28:54;;;;;;;2.63;1.93;;;;;;;9.01;82.46;100756.84;5054489;28;20239;-77
2023/12/26 07:31:22;;;;;;;9.67;2.30;;;;;;;8.96;82.24;100761.75;5055974;28;20191;-77
2023/12/26 07:33:51;;;;;;;3.73;1.90;;;;;;;8.97;82.67;100766.09;5056339;28;20183;-76
2023/12/26 07:36:17;;;;;;;5.73;1.97;;;;;;;8.95;82.87;100773.41;5055956;28;20183;-76
2023/12/26 07:38:44;;;;;;;5.93;2.17;;;;;;;8.86;82.78;100776.91;5055895;28;20233;-76
2023/12/26 07:41:10;;;;;;;10.13;2.03;;;;;;;8.86;83.24;100773.41;5055841;28;20194;-76
2023/12/26 07:43:37;;;;;;;5.83;2.77;;;;;;;8.92;82.34;100768.34;5055802;28;20244;-76
2023/12/26 07:46:04;;;;;;;4.23;2.20;;;;;;;8.89;82.61;100781.09;5055791;28;20245;-76
2023/12/26 07:48:31;;;;;;;9.27;2.43;;;;;;;8.83;83.27;100795.81;5056040;28;20582;-76
2023/12/26 07:50:57;;;;;;;2.40;2.20;;;;;;;8.81;83.49;100804.97;5055629;28;20233;-76
2023/12/26 07:53:24;;;;;;;2.33;2.23;;;;;;;8.80;83.73;100825.44;5056317;28;20729;-76
2023/12/26 07:55:50;;;;;;;8.23;2.60;;;;;;;8.80;84.05;100822.78;5055574;28;20187;-76
2023/12/26 07:58:17;;;;;;;10.37;2.20;;;;;;;8.78;84.21;100822.09;5055564;28;20563;-76
2023/12/26 08:00:44;;;;;;;2.33;1.57;;;;;;;8.78;84.43;100834.56;5055418;28;20262;-76
2023/12/26 08:03:15;;;;;;;6.20;2.20;;;;;;;8.70;85.32;100841.41;5055744;28;20168;-76
2023/12/26 08:05:45;;;;;;;4.80;1.70;;;;;;;8.72;85.52;100838.59;5055686;28;20180;-76
2023/12/26 08:08:11;;;;;;;7.10;2.17;;;;;;;8.68;86.54;100847.84;5055326;28;20183;-76
2023/12/26 08:10:40;;;;;;;4.27;2.10;;;;;;;8.78;86.06;100848.75;5055330;28;20215;-76
2023/12/26 08:13:06;;;;;;;9.10;2.60;;;;;;;8.83;85.61;100856.28;5055703;28;20249;-76
2023/12/26 08:15:33;;;;;;;2.40;2.30;;;;;;;8.81;85.80;100859.13;5055769;28;20184;-76
2023/12/26 08:17:59;;;;;;;2.80;2.60;;;;;;;8.75;86.09;100864.13;5055368;28;20203;-78
2023/12/26 08:20:27;;;;;;;4.97;2.57;;;;;;;8.68;86.04;100861.19;5055233;28;20219;-76
2023/12/26 08:22:54;;;;;;;6.03;2.57;;;;;;;8.78;85.34;100869.22;5055315;28;20179;-76
2023/12/26 08:25:20;;;;;;;9.57;1.90;;;;;;;8.70;85.45;100869.88;5054918;28;20183;-78
2023/12/26 08:27:47;;;;;;;3.17;1.70;;;;;;;8.69;85.46;100873.53;5054945;28;20251;-77
2023/12/26 08:30:14;;;;;;;3.27;2.00;;;;;;;8.66;85.13;100874.63;5054842;28;20214;-76
2023/12/26 08:32:41;;;;;;;1.60;1.50;;;;;;;8.70;84.64;100872.53;5054789;28;20227;-76
2023/12/26 08:35:08;;;;;;;8.33;2.20;;;;;;;8.56;85.56;100881.78;5055581;28;20199;-76
2023/12/26 08:37:34;;;;;;;11.20;2.57;;;;;;;8.58;85.17;100879.81;5054802;28;20183;-76
2023/12/26 08:40:02;;;;;;;5.40;1.40;;;;;;;8.54;84.45;100882.88;5054597;28;20207;-76
2023/12/26 08:42:28;;;;;;;6.17;1.90;;;;;;;8.55;83.53;100889.91;5054929;28;20265;-77
2023/12/26 08:44:55;;;;;;;5.07;1.80;;;;;;;8.52;83.09;100904.34;5055126;28;20188;-77
2023/12/26 08:47:21;;;;;;;3.80;1.50;;;;;;;8.50;82.76;100905.44;5054830;28;20183;-77
2023/12/26 08:49:48;;;;;;;2.13;1.97;;;;;;;8.51;82.16;100913.31;5054446;28;20242;-77
2023/12/26 08:52:14;;;;;;;3.50;1.97;;;;;;;8.50;81.88;100919.59;5054432;28;20209;-76
2023/12/26 08:54:43;;;;;;;4.03;2.03;;;;;;;8.55;80.86;100917.38;5054432;28;20187;-76
2023/12/26 08:57:10;;;;;;;4.13;2.37;;;;;;;8.57;79.93;100920.75;5054656;28;20187;-76
2023/12/26 08:59:36;;;;;;;2.50;2.23;;;;;;;8.52;80.42;100922.16;5054503;28;20712;-76
2023/12/26 09:02:03;;;;;;;2.90;2.03;;;;;;;8.55;79.74;100924.53;5054307;28;20188;-74
2023/12/26 09:04:30;;;;;;;3.10;2.30;;;;;;;8.59;79.72;100944.59;5054431;28;20187;-74
2023/12/26 09:06:57;;;;;;;4.07;2.23;;;;;;;8.58;79.84;100951.75;5054723;28;20183;-74
2023/12/26 09:09:26;;;;;;;8.33;2.80;;;;;;;8.59;80.17;100953.44;5054287;28;20213;-74
2023/12/26 09:11:55;;;;;;;5.13;2.43;;;;;;;8.48;80.49;100948.22;5054053;28;20282;-74
2023/12/26 09:14:21;;;;;;;5.47;2.03;;;;;;;8.60;79.62;100959.63;5054335;28;20187;-74
2023/12/26 09:16:48;;;;;;;2.57;2.43;;;;;;;8.61;79.56;100978.13;5053904;28;20193;-74
2023/12/26 09:19:15;;;;;;;2.37;2.13;;;;;;;8.61;80.12;100969.31;5054175;28;20210;-75
2023/12/26 09:21:42;;;;;;;3.00;2.90;;;;;;;8.60;79.84;100970.28;5054224;28;20191;-74
2023/12/26 09:24:09;;;;;;;5.03;2.50;;;;;;;8.60;80.17;100979.13;5053890;28;20188;-73
2023/12/26 09:26:35;;;;;;;7.93;2.67;;;;;;;8.65;78.90;100982.25;5054414;28;20272;-73
2023/12/26 09:29:01;;;;;;;5.07;2.30;;;;;;;8.65;80.13;100976.91;5053995;28;20187;-74
2023/12/26 09:31:28;;;;;;;5.20;2.43;;;;;;;8.71;79.81;100980.84;5054032;28;20183;-74
2023/12/26 09:33:54;;;;;;;11.43;2.80;;;;;;;8.69;79.65;100988.16;5053893;28;20264;-74
2023/12/26 09:36:21;;;;;;;3.30;2.93;;;;;;;8.76;79.44;100999.94;5053654;28;20194;-74
2023/12/26 09:38:48;;;;;;;9.03;3.13;;;;;;;8.86;79.63;100998.19;5053853;28;20183;-74
2023/12/26 09:41:16;;;;;;;7.47;3.13;;;;;;;8.94;80.18;100997.50;5054103;28;20215;-74
2023/12/26 09:43:43;;;;;;;2.93;2.53;;;;;;;8.97;79.03;101011.41;5053819;28;20175;-74
2023/12/26 09:46:09;;;;;;;4.30;2.93;;;;;;;9.02;79.62;101000.34;5054055;28;20187;-76
2023/12/26 09:48:36;;;;;;;5.77;2.40;;;;;;;9.07;79.84;101014.13;5053770;28;20620;-76
2023/12/26 09:51:07;;;;;;;6.80;3.30;;;;;;;9.20;80.42;101013.88;5053473;28;20203;-76
2023/12/26 09:53:34;;;;;;;13.60;3.07;;;;;;;9.30;79.75;101028.94;5053374;28;20233;-76
2023/12/26 09:56:01;;;;;;;7.93;4.07;;;;;;;9.26;79.69;101038.19;5053900;28;20187;-76
2023/12/26 09:58:29;;;;;;;9.40;2.87;;;;;;;9.23;80.01;101016.28;5054000;28;20171;-76
2023/12/26 10:00:57;;;;;;;11.00;3.80;;;;;;;9.23;79.61;101030.47;5053542;28;20207;-76
2023/12/26 10:03:24;;;;;;;5.07;2.93;;;;;;;9.25;80.26;101033.00;5053323;28;20185;-76
2023/12/26 10:05:57;;;;;;;12.33;3.40;;;;;;;9.13;79.43;101040.25;5053234;28;20562;-76
2023/12/26 10:08:24;;;;;;;2.63;2.53;;;;;;;9.12;79.65;101039.38;5053452;28;20524;-76
2023/12/26 10:10:51;;;;;;;10.07;2.47;;;;;;;9.05;78.93;101054.25;5053622;28;20207;-76
2023/12/26 10:13:17;;;;;;;4.70;2.60;;;;;;;9.06;79.03;101066.63;5053058;28;20199;-75
2023/12/26 10:15:43;;;;;;;11.07;3.00;;;;;;;9.09;79.33;101060.16;5053114;28;20183;-76
2023/12/26 10:18:10;;;;;;;6.77;3.27;;;;;;;9.10;79.49;101057.38;5051756;28;20191;-76
2023/12/26 10:20:37;;;;;;;10.90;2.63;;;;;;;9.08;78.71;101067.31;5053283;28;20256;-76
2023/12/26 10:23:04;;;;;;;6.27;2.73;;;;;;;9.02;78.72;101065.19;5053362;28;20175;-76
2023/12/26 10:25:30;;;;;;;11.23;2.47;;;;;;;8.97;79.50;101061.22;5053031;28;20191;-76
2023/12/26 10:28:00;;;;;;;5.33;3.30;;;;;;;8.88;78.73;101057.53;5052986;28;20284;-76
2023/12/26 10:30:27;;;;;;;6.53;3.17;;;;;;;8.88;79.91;101073.53;5052908;28;20290;-76
2023/12/26 10:33:02;;;;;;;7.93;2.10;;;;;;;8.81;79.34;101083.03;5053153;28;20578;-76
2023/12/26 10:35:30;;;;;;;4.67;2.83;;;;;;;8.79;79.74;101098.31;5053219;28;20186;-76
2023/12/26 10:37:57;;;;;;;4.00;3.03;;;;;;;8.78;79.00;101093.97;5053505;28;20175;-76
2023/12/26 10:40:24;;;;;;;5.83;2.90;;;;;;;8.82;78.33;101092.75;5052815;28;20199;-76
2023/12/26 10:42:51;;;;;;;7.43;3.20;;;;;;;8.90;78.39;101095.59;5052840;28;20237;-76
2023/12/26 10:45:19;;;;;;;5.03;2.73;;;;;;;8.93;77.76;101100.66;5052851;28;20704;-76
2023/12/26 10:47:48;;;;;;;5.90;2.73;;;;;;;9.00;78.20;101095.63;5053087;28;20175;-76
2023/12/26 10:50:18;;;;;;;2.53;2.13;;;;;;;9.05;78.25;101091.59;5052862;28;20210;-76
2023/12/26 10:52:52;;;;;;;3.80;2.77;;;;;;;9.03;77.76;101100.72;5052920;28;20206;-76
2023/12/26 10:55:19;;;;;;;3.00;2.43;;;;;;;9.05;76.37;101104.91;5053085;28;20175;-76
2023/12/26 10:57:46;;;;;;;8.63;2.63;;;;;;;9.12;77.66;101105.25;5053028;28;20182;-76
2023/12/26 11:00:13;;;;;;;11.93;2.10;;;;;;;9.15;76.89;101105.81;5053166;28;20245;-76
2023/12/26 11:02:42;;;;;;;7.03;3.40;;;;;;;9.20;77.31;101109.91;5053188;28;20183;-76
2023/12/26 11:05:09;;;;;;;3.43;2.83;;;;;;;9.24;76.63;101122.84;5056565;28;20697;-76
2023/12/26 11:07:36;;;;;;;9.90;4.10;;;;;;;9.26;75.41;101112.88;5057104;28;20183;-76
2023/12/26 11:10:02;;;;;;;9.13;3.60;;;;;;;9.34;74.60;101102.38;5056684;28;20207;-73
2023/12/26 11:12:29;;;;;;;13.07;3.70;;;;;;;9.35;75.47;101127.25;5056350;28;20203;-73
2023/12/26 11:14:55;;;;;;;10.60;3.40;;;;;;;9.36;74.59;101110.25;5056714;28;20207;-73
2023/12/26 11:17:22;;;;;;;8.27;2.87;;;;;;;9.29;74.62;101117.97;5056295;28;20209;-73
2023/12/26 11:19:50;;;;;;;10.83;3.53;;;;;;;9.22;74.11;101119.47;5056660;28;20215;-74
2023/12/26 11:22:17;;;;;;;6.93;3.03;;;;;;;9.17;74.90;101127.88;5056354;28;20171;-72
2023/12/26 11:24:43;;;;;;;7.40;2.40;;;;;;;9.16;75.31;101136.00;5055049;28;20198;-73
2023/12/26 11:27:12;;;;;;;7.40;2.67;;;;;;;9.23;75.75;101142.50;5056163;28;20651;-76